createdAt,value
2017-09-17T16:47:06.367Z,52.34
2017-09-17T16:48:15.392Z,51.79
2017-09-17T16:49:24.037Z,51.59
2017-09-17T16:50:33.349Z,51.69
2017-09-17T16:51:42.642Z,51.14
2017-09-17T16:52:51.859Z,50.95
2017-09-17T16:54:00.977Z,50.37
2017-09-17T16:55:10.263Z,50.66
2017-09-17T16:56:19.248Z,50.2
2017-09-17T16:57:27.901Z,50.2
2017-09-17T16:58:36.862Z,49.72
2017-09-17T16:59:45.865Z,49.82
2017-09-17T17:00:54.837Z,49.33
2017-09-17T17:02:03.816Z,49.46
2017-09-17T17:03:12.487Z,49.36
2017-09-17T17:04:21.926Z,49.36
2017-09-17T17:05:31.231Z,48.49
2017-09-17T17:06:40.517Z,48.88
2017-09-17T17:07:49.165Z,48.69
2017-09-17T17:08:58.758Z,48.59
2017-09-17T17:10:07.896Z,48.52
2017-09-17T17:11:17.203Z,48.71
2017-09-17T17:12:25.888Z,48.43
2017-09-17T17:13:35.203Z,48.71
2017-09-17T17:14:43.881Z,48.52
2017-09-17T17:15:52.602Z,48.33
2017-09-17T17:17:01.921Z,48.43
2017-09-17T17:18:10.899Z,48.43
2017-09-17T17:19:19.890Z,48.44
2017-09-17T17:20:29.187Z,48.52
2017-09-17T17:21:38.587Z,48.64
2017-09-17T17:22:47.244Z,48.83
2017-09-17T17:23:56.563Z,48.71
2017-09-17T17:25:05.243Z,49.77
2017-09-17T17:26:13.913Z,49.74
2017-09-17T17:27:22.916Z,50.13
2017-09-17T17:28:32.321Z,50.61
2017-09-17T17:29:41.305Z,50.87
2017-09-17T17:30:50.618Z,51.17
2017-09-17T17:31:59.606Z,51.64
2017-09-17T17:33:09.256Z,51.53
2017-09-17T17:34:17.935Z,52.1
2017-09-17T17:35:26.921Z,52.1
2017-09-17T17:36:35.582Z,52.48
2017-09-17T17:37:44.873Z,52.68
2017-09-17T17:38:53.888Z,53.03
2017-09-17T17:40:04.151Z,52.65
2017-09-17T17:41:12.817Z,52.94
2017-09-17T17:42:21.493Z,53.23
2017-09-17T17:43:30.503Z,53.32
2017-09-17T17:44:40.463Z,53.23
2017-09-17T17:45:49.786Z,53.13
2017-09-17T17:46:59.082Z,53.13
2017-09-17T17:48:08.176Z,53.97
2017-09-17T17:49:17.843Z,53.87
2017-09-17T17:50:26.974Z,53.87
2017-09-17T17:51:36.580Z,53.97
2017-09-17T17:52:45.234Z,54.06
2017-09-17T17:53:54.518Z,53.68
2017-09-17T17:55:03.521Z,54.25
2017-09-17T17:56:12.955Z,53.78
2017-09-17T17:57:21.924Z,54.25
2017-09-17T17:58:30.619Z,53.3
2017-09-17T17:59:40.639Z,52.94
2017-09-17T18:00:49.794Z,53.13
2017-09-17T18:01:58.773Z,53.01
2017-09-17T18:03:07.794Z,52.75
2017-09-17T18:04:17.221Z,52.94
2017-09-17T18:05:26.687Z,53.23
2017-09-17T18:06:35.735Z,52.17
2017-09-17T18:07:45.215Z,52.55
2017-09-17T18:08:54.261Z,52.65
2017-09-17T18:10:03.538Z,52.65
2017-09-17T18:11:12.266Z,52.26
2017-09-17T18:12:21.236Z,52.17
2017-09-17T18:13:31.042Z,52.08
2017-09-17T18:14:40.367Z,52.26
2017-09-17T18:15:49.367Z,52.36
2017-09-17T18:16:59.045Z,52.36
2017-09-17T18:18:08.001Z,52.46
2017-09-17T18:19:17.772Z,52.46
2017-09-17T18:20:26.788Z,51.98
2017-09-17T18:21:35.471Z,52
2017-09-17T18:22:44.931Z,51.81
2017-09-17T18:23:53.716Z,51.88
2017-09-17T18:25:02.757Z,51.91
2017-09-17T18:26:11.742Z,51.98
2017-09-17T18:27:21.040Z,51.91
2017-09-17T18:28:29.709Z,51.88
2017-09-17T18:29:38.383Z,51.69
2017-09-17T18:30:47.496Z,51.88
2017-09-17T18:31:56.790Z,51.98
2017-09-17T18:33:06.073Z,52
2017-09-17T18:34:15.039Z,52
2017-09-17T18:35:24.000Z,51.79
2017-09-17T18:36:32.666Z,51.98
2017-09-17T18:37:41.342Z,51.81
2017-09-17T18:38:49.979Z,51.69
2017-09-17T18:39:58.981Z,51.79
2017-09-17T18:41:07.649Z,51.79
2017-09-17T18:42:16.639Z,52
2017-09-17T18:43:26.252Z,51.98
2017-09-17T18:44:35.556Z,51.91
2017-09-17T18:45:44.838Z,51.69
2017-09-17T18:46:54.422Z,51.88
2017-09-17T18:48:03.840Z,51.91
2017-09-17T18:49:12.809Z,51.69
2017-09-17T18:50:22.081Z,51.91
2017-09-17T18:51:31.362Z,52.29
2017-09-17T18:52:40.641Z,51.98
2017-09-17T18:53:49.699Z,52.08
2017-09-17T18:54:58.971Z,51.91
2017-09-17T18:56:08.274Z,51.98
2017-09-17T18:57:17.886Z,52.55
2017-09-17T18:58:26.919Z,51.79
2017-09-17T18:59:36.865Z,52.55
2017-09-17T19:00:45.819Z,52.08
2017-09-17T19:01:54.793Z,52.46
2017-09-17T19:03:03.765Z,52.36
2017-09-17T19:04:13.043Z,52.36
2017-09-17T19:05:22.168Z,52.36
2017-09-17T19:06:31.479Z,52.26
2017-09-17T19:07:40.457Z,52.26
2017-09-17T19:08:49.136Z,52.26
2017-09-17T19:09:58.444Z,52.26
2017-09-17T19:11:07.244Z,52.17
2017-09-17T19:12:16.228Z,52.17
2017-09-17T19:13:25.524Z,52.26
2017-09-17T19:14:35.149Z,52.75
2017-09-17T19:15:44.123Z,52.26
2017-09-17T19:16:53.405Z,52.46
2017-09-17T19:18:02.711Z,52.46
2017-09-17T19:19:12.007Z,52.46
2017-09-17T19:20:21.617Z,52.46
2017-09-17T19:21:30.653Z,52.55
2017-09-17T19:22:40.715Z,52.26
2017-09-17T19:23:50.018Z,52.26
2017-09-17T19:24:59.046Z,52.36
2017-09-17T19:26:07.702Z,52.36
2017-09-17T19:27:16.694Z,52.46
2017-09-17T19:28:25.854Z,52.55
2017-09-17T19:29:34.826Z,52.26
2017-09-17T19:30:43.490Z,52.17
2017-09-17T19:31:53.104Z,52.55
2017-09-17T19:33:02.084Z,52.65
2017-09-17T19:34:11.746Z,52.65
2017-09-17T19:35:20.729Z,52.75
2017-09-17T19:36:30.029Z,52.75
2017-09-17T19:37:39.027Z,53.13
2017-09-17T19:38:48.015Z,53.13
2017-09-17T19:39:56.825Z,53.2
2017-09-17T19:41:05.802Z,52.91
2017-09-17T19:42:14.801Z,52.81
2017-09-17T19:43:23.822Z,53.03
2017-09-17T19:44:32.817Z,52.91
2017-09-17T19:45:41.983Z,52.91
2017-09-17T19:46:50.681Z,52.81
2017-09-17T19:47:59.634Z,53.03
2017-09-17T19:49:08.288Z,53.03
2017-09-17T19:50:16.946Z,52.94
2017-09-17T19:51:26.076Z,52.94
2017-09-17T19:52:35.037Z,53.03
2017-09-17T19:53:44.004Z,52.62
2017-09-17T19:54:53.601Z,53.01
2017-09-17T19:56:02.567Z,52.81
2017-09-17T19:57:12.042Z,53.01
2017-09-17T19:58:20.739Z,53.01
2017-09-17T19:59:30.027Z,53.11
2017-09-17T20:00:39.352Z,52.81
2017-09-17T20:01:48.013Z,52.81
2017-09-17T20:02:56.969Z,52.81
2017-09-17T20:04:05.963Z,52.81
2017-09-17T20:05:14.933Z,52.81
2017-09-17T20:06:23.612Z,52.91
2017-09-17T20:07:33.208Z,52.81
2017-09-17T20:08:42.656Z,52.91
2017-09-17T20:09:52.246Z,52.91
2017-09-17T20:11:01.209Z,52.91
2017-09-17T20:12:10.488Z,52.81
2017-09-17T20:13:19.477Z,52.91
2017-09-17T20:14:28.614Z,52.72
2017-09-17T20:15:37.268Z,52.72
2017-09-17T20:16:46.270Z,53.11
2017-09-17T20:17:56.193Z,53.01
2017-09-17T20:19:04.872Z,52.91
2017-09-17T20:20:14.317Z,52.75
2017-09-17T20:21:22.996Z,53.11
2017-09-17T20:22:31.665Z,52.72
2017-09-17T20:23:40.316Z,52.75
2017-09-17T20:24:49.041Z,52.75
2017-09-17T20:25:58.667Z,52.62
2017-09-17T20:27:07.655Z,52.62
2017-09-17T20:28:16.316Z,52.53
2017-09-17T20:29:25.281Z,52.65
2017-09-17T20:30:34.891Z,52.75
2017-09-17T20:31:44.017Z,52.65
2017-09-17T20:32:52.673Z,52.75
2017-09-17T20:34:01.353Z,52.65
2017-09-17T20:35:10.014Z,52.65
2017-09-17T20:36:19.963Z,52.65
2017-09-17T20:37:29.415Z,52.65
2017-09-17T20:38:38.074Z,52.65
2017-09-17T20:39:47.061Z,52.65
2017-09-17T20:40:56.036Z,52.24
2017-09-17T20:42:05.665Z,52.46
2017-09-17T20:43:14.324Z,52.75
2017-09-17T20:44:23.314Z,52.62
2017-09-17T20:45:32.286Z,52.62
2017-09-17T20:46:41.287Z,52.72
2017-09-17T20:47:50.339Z,52.81
2017-09-17T20:48:59.794Z,52.75
2017-09-17T20:50:09.713Z,53.11
2017-09-17T20:51:18.389Z,53.23
2017-09-17T20:52:27.061Z,52.75
2017-09-17T20:53:35.766Z,52.75
2017-09-17T20:54:44.891Z,53.23
2017-09-17T20:55:53.553Z,53.13
2017-09-17T20:57:02.222Z,53.23
2017-09-17T20:58:11.537Z,53.03
2017-09-17T20:59:20.522Z,53.03
2017-09-17T21:00:29.960Z,52.91
2017-09-17T21:01:39.246Z,52.91
2017-09-17T21:02:48.223Z,52.91
2017-09-17T21:03:57.517Z,52.91
2017-09-17T21:05:06.502Z,52.81
2017-09-17T21:06:16.101Z,52.62
2017-09-17T21:07:25.383Z,52.81
2017-09-17T21:08:34.996Z,52.81
2017-09-17T21:09:44.276Z,52.91
2017-09-17T21:10:53.473Z,52.91
2017-09-17T21:12:03.097Z,53.01
2017-09-17T21:13:12.380Z,53.01
2017-09-17T21:14:21.371Z,53.2
2017-09-17T21:15:30.648Z,52.91
2017-09-17T21:16:39.622Z,53.01
2017-09-17T21:17:49.327Z,53.39
2017-09-17T21:18:58.305Z,53.87
2017-09-17T21:20:07.584Z,53.85
2017-09-17T21:21:16.613Z,54.13
2017-09-17T21:22:25.888Z,54.13
2017-09-17T21:23:35.143Z,54.13
2017-09-17T21:24:44.770Z,54.23
2017-09-17T21:25:53.753Z,54.42
2017-09-17T21:27:02.714Z,54.52
2017-09-17T21:28:11.688Z,54.58
2017-09-17T21:29:21.288Z,54.52
2017-09-17T21:30:29.947Z,54.58
2017-09-17T21:31:39.280Z,55.07
2017-09-17T21:32:48.049Z,55.26
2017-09-17T21:33:56.698Z,54.88
2017-09-17T21:35:05.508Z,55.55
2017-09-17T21:36:14.162Z,55.64
2017-09-17T21:37:23.770Z,55.93
2017-09-17T21:38:33.058Z,55.74
2017-09-17T21:39:42.362Z,55.64
2017-09-17T21:40:51.368Z,55.8
2017-09-17T21:42:00.645Z,55.62
2017-09-17T21:43:09.664Z,55.71
2017-09-17T21:44:18.946Z,55.71
2017-09-17T21:45:27.935Z,55.52
2017-09-17T21:46:36.898Z,55.45
2017-09-17T21:47:46.216Z,55.16
2017-09-17T21:48:56.145Z,54.3
2017-09-17T21:50:05.439Z,54.3
2017-09-17T21:51:14.130Z,54.23
2017-09-17T21:52:23.895Z,53.85
2017-09-17T21:53:32.547Z,53.66
2017-09-17T21:54:42.157Z,53.75
2017-09-17T21:55:50.858Z,53.39
2017-09-17T21:57:00.147Z,53.01
2017-09-17T21:58:09.587Z,52.53
2017-09-17T21:59:18.248Z,52.72
2017-09-17T22:00:27.545Z,52.75
2017-09-17T22:01:36.506Z,52.46
2017-09-17T22:02:46.147Z,52.26
2017-09-17T22:03:55.221Z,51.79
2017-09-17T22:05:03.883Z,51.88
2017-09-17T22:06:12.853Z,51.88
2017-09-17T22:07:21.848Z,51.43
2017-09-17T22:08:30.518Z,51.81
2017-09-17T22:09:39.608Z,51.62
2017-09-17T22:10:48.571Z,51.62
2017-09-17T22:11:57.857Z,51.43
2017-09-17T22:13:06.541Z,51.23
2017-09-17T22:14:15.527Z,51.23
2017-09-17T22:15:24.480Z,50.85
2017-09-17T22:16:33.768Z,50.66
2017-09-17T22:17:43.684Z,50.87
2017-09-17T22:18:53.299Z,51.04
2017-09-17T22:20:01.967Z,51.07
2017-09-17T22:21:11.708Z,50.97
2017-09-17T22:22:20.356Z,50.97
2017-09-17T22:23:29.364Z,50.49
2017-09-17T22:24:38.399Z,50.49
2017-09-17T22:25:47.382Z,50.49
2017-09-17T22:26:56.052Z,50.59
2017-09-17T22:28:04.717Z,50.68
2017-09-17T22:29:13.700Z,50.59
2017-09-17T22:30:22.359Z,50.49
2017-09-17T22:31:31.038Z,50.59
2017-09-17T22:32:40.479Z,50.42
2017-09-17T22:33:49.482Z,50.71
2017-09-17T22:34:58.449Z,50.71
2017-09-17T22:36:07.422Z,50.51
2017-09-17T22:37:16.392Z,50.61
2017-09-17T22:38:25.994Z,50.61
2017-09-17T22:39:35.301Z,50.61
2017-09-17T22:40:44.894Z,50.81
2017-09-17T22:41:54.197Z,50.71
2017-09-17T22:43:03.174Z,50.32
2017-09-17T22:44:12.497Z,50.61
2017-09-17T22:45:21.779Z,50.61
2017-09-17T22:46:30.429Z,50.51
2017-09-17T22:47:39.096Z,50.51
2017-09-17T22:48:48.700Z,50.51
2017-09-17T22:49:58.463Z,50.51
2017-09-17T22:51:07.151Z,50.23
2017-09-17T22:52:16.441Z,50.51
2017-09-17T22:53:25.125Z,50.51
2017-09-17T22:54:34.406Z,50.42
2017-09-17T22:55:43.071Z,50.81
2017-09-17T22:56:52.369Z,50.71
2017-09-17T22:58:01.033Z,50.51
2017-09-17T22:59:10.010Z,50.42
2017-09-17T23:00:18.703Z,50.15
2017-09-17T23:01:28.608Z,50.51
2017-09-17T23:02:37.580Z,50.51
2017-09-17T23:03:46.548Z,50.54
2017-09-17T23:04:55.530Z,50.61
2017-09-17T23:06:04.828Z,50.61
2017-09-17T23:07:14.134Z,50.63
2017-09-17T23:08:23.098Z,50.61
2017-09-17T23:09:32.437Z,50.63
2017-09-17T23:10:41.788Z,50.9
2017-09-17T23:11:51.070Z,50.93
2017-09-17T23:12:59.723Z,50.93
2017-09-17T23:14:09.005Z,50.54
2017-09-17T23:15:17.986Z,50.63
2017-09-17T23:16:27.268Z,50.83
2017-09-17T23:17:36.252Z,50.54
2017-09-17T23:18:45.707Z,50.83
2017-09-17T23:19:54.660Z,50.83
2017-09-17T23:21:04.377Z,50.54
2017-09-17T23:22:13.682Z,50.83
2017-09-17T23:23:23.490Z,50.35
2017-09-17T23:24:32.283Z,50.54
2017-09-17T23:25:40.929Z,50.54
2017-09-17T23:26:50.535Z,50.54
2017-09-17T23:27:59.816Z,50.63
2017-09-17T23:29:09.418Z,50.54
2017-09-17T23:30:18.741Z,50.63
2017-09-17T23:31:27.707Z,50.54
2017-09-17T23:32:36.372Z,50.54
2017-09-17T23:33:45.033Z,50.63
2017-09-17T23:34:54.686Z,50.54
2017-09-17T23:36:03.804Z,50.63
2017-09-17T23:37:12.807Z,50.63
2017-09-17T23:38:21.766Z,50.54
2017-09-17T23:39:31.046Z,50.63
2017-09-17T23:40:40.312Z,50.54
2017-09-17T23:41:49.273Z,50.54
2017-09-17T23:42:57.937Z,50.54
2017-09-17T23:44:07.230Z,50.73
2017-09-17T23:45:16.865Z,50.54
2017-09-17T23:46:26.156Z,50.45
2017-09-17T23:47:35.135Z,50.63
2017-09-17T23:48:43.786Z,50.54
2017-09-17T23:49:53.389Z,50.63
2017-09-17T23:51:02.679Z,50.63
2017-09-17T23:52:11.674Z,50.54
2017-09-17T23:53:20.987Z,50.63
2017-09-17T23:54:29.674Z,50.63
2017-09-17T23:55:38.965Z,50.83
2017-09-17T23:56:48.573Z,50.45
2017-09-17T23:57:57.871Z,50.54
2017-09-17T23:59:06.563Z,50.54
